« 第7師団創隊64周年・東千歳駐屯地創立65周年記念行事【訓練展示編】 2019/5/26 sun | トップページ | 定点 富山空港 2019/8/10 sat »

2019/08/07

定点 富山空港 2019/8/7 wed

熱帯夜が明けて、朝から暑い

RJNT 062330Z 17005KT 090V210 9999 FEW040 BKN/// 32/23 Q1010 RMK 1CU040 A2984

20190807_rjnt_00tateyamamaru

本日のお船は、立山丸

20190807_rjnt_01ja62an

ANA313 RJTT-RJNT JA62AN B737-881

RJNT 070000Z 18005KT 110V240 9999 FEW040 BKN/// 33/24 Q1010

20190807_rjnt_02ja6768

JA6768 B412EP 富山県消防防災 今日も朝から山岳救難

20190807_rjnt_03ja6502

JA6502 AS350B3 AKF

20190807_rjnt_04ja62an

ANA316 RJNT-RJTT JA62AN B737-881

20190807_rjnt_05ja6502

JA6502

20190807_rjnt_06ja18yt

JA18YT B505 SIJ 小矢部に帰ってきたのかな?

RJNT 070000Z 18005KT 110V240 9999 FEW040 BKN/// 33/24 Q1010

20190807_rjnt_07ja132a

20190807_rjnt_08ja132a

ANA315 RJTT-RJNT JA132A A321-272N

20190807_rjnt_09ja6502

JA6502

RJNT 070200Z 30004KT 250V340 9999 FEW030 BKN/// 35/23 Q1009

20190807_rjnt_10b6652

20190807_rjnt_11b6652

CSN613 ZYTL-RJNT B-6652 A320-232

20190807_rjnt_12b6652

20190807_rjnt_13ja2435

JA2435 SF-25C

20190807_rjnt_14ja132a

20190807_rjnt_15ja132a

ANA1181 RJNT-RJCC JA132A A321-272N

RJNT 070200Z 30004KT 250V340 9999 FEW030 BKN/// 35/23 Q1009

20190807_rjnt_16b6652

20190807_rjnt_17b6652

CSN614 RJNT-ZYTL B-6652 A320-232

20190807_rjnt_18ja828n

JA828N C208 NNK 朝から測量 直上通過

RJNT 070400Z 36009KT 9999 FEW030 FEW035TCU SCT/// 35/22 Q1009

通常はこのあたりで離脱するのですが・・  怪しいNOTAMがでていて

20190807_rjnt_19bv

13時半すぎから不法侵入者対処訓練開始

20190807_rjnt_20bv

空港管理事務所の車両が現場に向かいます。

20190807_rjnt_21bv

不審者インサイト 刃物を持っているそうだ

20190807_rjnt_22bv

富山県で一番暑いアメダスポイント 35℃

20190807_rjnt_23bv

じんだはんが追いかけます。ぎょぎょ婦警さんではないですか・・・

20190807_rjnt_24bv

パトカーが急行

20190807_rjnt_25bv

捕り物の始まり 御用だ、御用だ

20190807_rjnt_26bv

不審者確保

20190807_rjnt_27bv

所轄は富山南署 パトカーが引き上げて、点検等のシーケンスを確認していたようでした。

暑い中、ご苦労さまです。

 

|

« 第7師団創隊64周年・東千歳駐屯地創立65周年記念行事【訓練展示編】 2019/5/26 sun | トップページ | 定点 富山空港 2019/8/10 sat »

富山空港」カテゴリの記事

警務消防」カテゴリの記事

コメント

コメントを書く



(ウェブ上には掲載しません)


コメントは記事投稿者が公開するまで表示されません。



« 第7師団創隊64周年・東千歳駐屯地創立65周年記念行事【訓練展示編】 2019/5/26 sun | トップページ | 定点 富山空港 2019/8/10 sat »